sensor_id;sensor_type;location;lat;lon;timestamp;pressure;altitude;pressure_sealevel;temperature;humidity
1207;BME280;593;53.184;8.216;2022-10-23T00:02:18;101169.78;;;13.42;100.00
1207;BME280;593;53.184;8.216;2022-10-23T00:04:43;101160.25;;;13.39;100.00
1207;BME280;593;53.184;8.216;2022-10-23T00:07:09;101158.63;;;13.38;100.00
1207;BME280;593;53.184;8.216;2022-10-23T00:09:34;101156.19;;;13.37;100.00
1207;BME280;593;53.184;8.216;2022-10-23T00:11:59;101157.56;;;13.34;100.00
1207;BME280;593;53.184;8.216;2022-10-23T00:14:25;101155.72;;;13.30;100.00
1207;BME280;593;53.184;8.216;2022-10-23T00:16:50;101161.19;;;13.30;100.00
1207;BME280;593;53.184;8.216;2022-10-23T00:19:16;101157.31;;;13.31;100.00
1207;BME280;593;53.184;8.216;2022-10-23T00:21:42;101160.34;;;13.29;100.00
1207;BME280;593;53.184;8.216;2022-10-23T00:24:07;101158.19;;;13.26;100.00
1207;BME280;593;53.184;8.216;2022-10-23T00:26:33;101161.75;;;13.27;100.00
1207;BME280;593;53.184;8.216;2022-10-23T00:28:58;101154.63;;;13.26;100.00
1207;BME280;593;53.184;8.216;2022-10-23T00:31:24;101155.75;;;13.25;100.00
1207;BME280;593;53.184;8.216;2022-10-23T00:33:50;101153.59;;;13.22;100.00
1207;BME280;593;53.184;8.216;2022-10-23T00:36:17;101163.66;;;13.26;100.00
1207;BME280;593;53.184;8.216;2022-10-23T00:38:43;101151.91;;;13.26;100.00
1207;BME280;593;53.184;8.216;2022-10-23T00:41:10;101153.81;;;13.25;100.00
1207;BME280;593;53.184;8.216;2022-10-23T00:44:10;101151.38;;;13.24;100.00
1207;BME280;593;53.184;8.216;2022-10-23T00:46:55;101145.66;;;13.20;100.00
1207;BME280;593;53.184;8.216;2022-10-23T00:49:21;101146.50;;;13.21;100.00
1207;BME280;593;53.184;8.216;2022-10-23T00:51:53;101143.75;;;13.21;100.00
1207;BME280;593;53.184;8.216;2022-10-23T00:54:22;101149.78;;;13.18;100.00
1207;BME280;593;53.184;8.216;2022-10-23T00:56:50;101153.66;;;13.17;100.00
1207;BME280;593;53.184;8.216;2022-10-23T00:59:16;101148.69;;;13.19;100.00
1207;BME280;593;53.184;8.216;2022-10-23T01:01:42;101142.72;;;13.17;100.00
1207;BME280;593;53.184;8.216;2022-10-23T01:04:08;101143.28;;;13.14;100.00
1207;BME280;593;53.184;8.216;2022-10-23T01:06:41;101144.34;;;13.18;100.00
1207;BME280;593;53.184;8.216;2022-10-23T01:09:18;101143.81;;;13.16;100.00
1207;BME280;593;53.184;8.216;2022-10-23T01:11:54;101154.72;;;13.16;100.00
1207;BME280;593;53.184;8.216;2022-10-23T01:14:28;101146.53;;;13.16;100.00
1207;BME280;593;53.184;8.216;2022-10-23T01:19:45;101148.22;;;13.12;100.00
1207;BME280;593;53.184;8.216;2022-10-23T01:25:27;101144.97;;;13.10;100.00
1207;BME280;593;53.184;8.216;2022-10-23T01:28:01;101138.19;;;13.07;100.00
1207;BME280;593;53.184;8.216;2022-10-23T01:30:29;101145.78;;;13.05;100.00
1207;BME280;593;53.184;8.216;2022-10-23T01:35:31;101143.88;;;13.06;100.00
1207;BME280;593;53.184;8.216;2022-10-23T01:38:08;101151.25;;;13.05;100.00
1207;BME280;593;53.184;8.216;2022-10-23T01:43:07;101148.56;;;13.00;100.00
1207;BME280;593;53.184;8.216;2022-10-23T01:45:41;101139.03;;;12.98;100.00
1207;BME280;593;53.184;8.216;2022-10-23T01:48:10;101142.56;;;12.98;100.00
1207;BME280;593;53.184;8.216;2022-10-23T01:50:39;101149.38;;;13.01;100.00
1207;BME280;593;53.184;8.216;2022-10-23T01:53:06;101138.81;;;12.94;100.00
1207;BME280;593;53.184;8.216;2022-10-23T01:55:31;101148.06;;;12.93;100.00
1207;BME280;593;53.184;8.216;2022-10-23T01:57:59;101146.69;;;12.96;100.00
1207;BME280;593;53.184;8.216;2022-10-23T02:00:24;101136.88;;;12.95;100.00
1207;BME280;593;53.184;8.216;2022-10-23T02:02:51;101140.72;;;12.94;100.00
1207;BME280;593;53.184;8.216;2022-10-23T02:05:23;101142.34;;;12.95;100.00
1207;BME280;593;53.184;8.216;2022-10-23T02:07:50;101141.00;;;12.92;100.00
1207;BME280;593;53.184;8.216;2022-10-23T02:10:16;101141.00;;;12.92;100.00
1207;BME280;593;53.184;8.216;2022-10-23T02:20:35;101137.53;;;12.81;100.00
1207;BME280;593;53.184;8.216;2022-10-23T02:23:28;101145.44;;;12.83;100.00
1207;BME280;593;53.184;8.216;2022-10-23T02:29:03;101123.66;;;12.73;100.00
1207;BME280;593;53.184;8.216;2022-10-23T02:31:31;101119.84;;;12.74;100.00
1207;BME280;593;53.184;8.216;2022-10-23T02:33:56;101113.31;;;12.75;100.00
1207;BME280;593;53.184;8.216;2022-10-23T02:36:22;101122.84;;;12.77;100.00
1207;BME280;593;53.184;8.216;2022-10-23T02:38:47;101116.81;;;12.75;100.00
1207;BME280;593;53.184;8.216;2022-10-23T02:44:16;101117.44;;;12.72;100.00
1207;BME280;593;53.184;8.216;2022-10-23T02:52:20;101102.47;;;12.65;100.00
1207;BME280;593;53.184;8.216;2022-10-23T02:58:08;101107.38;;;12.63;100.00
1207;BME280;593;53.184;8.216;2022-10-23T03:00:36;101094.84;;;12.62;100.00
1207;BME280;593;53.184;8.216;2022-10-23T03:03:26;101088.56;;;12.61;100.00
1207;BME280;593;53.184;8.216;2022-10-23T03:05:52;101083.97;;;12.57;100.00
1207;BME280;593;53.184;8.216;2022-10-23T03:08:18;101086.69;;;12.57;100.00
1207;BME280;593;53.184;8.216;2022-10-23T03:10:43;101075.34;;;12.45;100.00
1207;BME280;593;53.184;8.216;2022-10-23T03:13:09;101084.84;;;12.52;100.00
1207;BME280;593;53.184;8.216;2022-10-23T03:15:35;101091.34;;;12.56;100.00
1207;BME280;593;53.184;8.216;2022-10-23T03:18:00;101085.41;;;12.49;100.00
1207;BME280;593;53.184;8.216;2022-10-23T03:20:26;101082.66;;;12.49;100.00
1207;BME280;593;53.184;8.216;2022-10-23T03:22:51;101074.47;;;12.49;100.00
1207;BME280;593;53.184;8.216;2022-10-23T03:25:16;101078.28;;;12.48;100.00
1207;BME280;593;53.184;8.216;2022-10-23T03:27:42;101057.66;;;12.37;100.00
1207;BME280;593;53.184;8.216;2022-10-23T03:30:08;101070.41;;;12.47;100.00
1207;BME280;593;53.184;8.216;2022-10-23T03:32:33;101065.81;;;12.42;100.00
1207;BME280;593;53.184;8.216;2022-10-23T03:34:59;101059.00;;;12.40;100.00
1207;BME280;593;53.184;8.216;2022-10-23T03:37:24;101068.25;;;12.44;100.00
1207;BME280;593;53.184;8.216;2022-10-23T03:39:49;101056.81;;;12.42;100.00
1207;BME280;593;53.184;8.216;2022-10-23T03:42:15;101050.81;;;12.40;100.00
1207;BME280;593;53.184;8.216;2022-10-23T03:44:41;101057.63;;;12.42;100.00
1207;BME280;593;53.184;8.216;2022-10-23T03:47:06;101046.16;;;12.40;100.00
1207;BME280;593;53.184;8.216;2022-10-23T03:49:33;101041.56;;;12.36;100.00
1207;BME280;593;53.184;8.216;2022-10-23T03:51:59;101056.28;;;12.40;100.00
1207;BME280;593;53.184;8.216;2022-10-23T03:54:26;101060.41;;;12.37;100.00
1207;BME280;593;53.184;8.216;2022-10-23T03:56:53;101066.94;;;12.36;100.00
1207;BME280;593;53.184;8.216;2022-10-23T03:59:19;101074.03;;;12.37;100.00
1207;BME280;593;53.184;8.216;2022-10-23T04:01:44;101060.41;;;12.37;100.00
1207;BME280;593;53.184;8.216;2022-10-23T04:04:10;101061.53;;;12.31;100.00
1207;BME280;593;53.184;8.216;2022-10-23T04:06:36;101049.78;;;12.31;100.00
1207;BME280;593;53.184;8.216;2022-10-23T04:09:01;101057.94;;;12.36;100.00
1207;BME280;593;53.184;8.216;2022-10-23T04:11:27;101053.28;;;12.36;100.00
1207;BME280;593;53.184;8.216;2022-10-23T04:13:52;101056.28;;;12.40;100.00
1207;BME280;593;53.184;8.216;2022-10-23T04:16:17;101051.94;;;12.34;100.00
1207;BME280;593;53.184;8.216;2022-10-23T04:18:43;101052.47;;;12.36;100.00
1207;BME280;593;53.184;8.216;2022-10-23T04:21:09;101042.38;;;12.36;100.00
1207;BME280;593;53.184;8.216;2022-10-23T04:23:35;101037.50;;;12.33;100.00
1207;BME280;593;53.184;8.216;2022-10-23T04:26:00;101045.94;;;12.37;100.00
1207;BME280;593;53.184;8.216;2022-10-23T04:28:26;101044.25;;;12.41;100.00
1207;BME280;593;53.184;8.216;2022-10-23T04:30:52;101032.00;;;12.38;100.00
1207;BME280;593;53.184;8.216;2022-10-23T04:33:17;101030.34;;;12.42;100.00
1207;BME280;593;53.184;8.216;2022-10-23T04:35:43;101044.00;;;12.42;100.00
1207;BME280;593;53.184;8.216;2022-10-23T04:38:08;101042.06;;;12.43;100.00
1207;BME280;593;53.184;8.216;2022-10-23T04:40:34;101037.44;;;12.38;100.00
1207;BME280;593;53.184;8.216;2022-10-23T04:42:59;101037.97;;;12.40;100.00
1207;BME280;593;53.184;8.216;2022-10-23T04:45:24;101039.63;;;12.41;100.00
1207;BME280;593;53.184;8.216;2022-10-23T04:47:50;101038.78;;;12.41;100.00
1207;BME280;593;53.184;8.216;2022-10-23T04:50:17;101045.38;;;12.40;100.00
1207;BME280;593;53.184;8.216;2022-10-23T04:52:43;101053.00;;;12.38;100.00
1207;BME280;593;53.184;8.216;2022-10-23T04:55:08;101042.44;;;12.31;100.00
1207;BME280;593;53.184;8.216;2022-10-23T04:57:34;101043.47;;;12.35;100.00
1207;BME280;593;53.184;8.216;2022-10-23T04:59:59;101046.19;;;12.35;100.00
1207;BME280;593;53.184;8.216;2022-10-23T05:02:24;101052.25;;;12.32;100.00
1207;BME280;593;53.184;8.216;2022-10-23T05:04:51;101047.59;;;12.33;100.00
1207;BME280;593;53.184;8.216;2022-10-23T05:07:17;101043.25;;;12.32;100.00
1207;BME280;593;53.184;8.216;2022-10-23T05:09:42;101037.00;;;12.26;100.00
1207;BME280;593;53.184;8.216;2022-10-23T05:12:07;101040.00;;;12.30;100.00
1207;BME280;593;53.184;8.216;2022-10-23T05:14:33;101041.59;;;12.31;100.00
1207;BME280;593;53.184;8.216;2022-10-23T05:17:15;101034.81;;;12.28;100.00
1207;BME280;593;53.184;8.216;2022-10-23T05:19:46;101028.81;;;12.26;100.00
1207;BME280;593;53.184;8.216;2022-10-23T05:22:14;101035.09;;;12.27;100.00
1207;BME280;593;53.184;8.216;2022-10-23T05:24:39;101028.00;;;12.26;100.00
1207;BME280;593;53.184;8.216;2022-10-23T05:27:04;101032.94;;;12.23;100.00
1207;BME280;593;53.184;8.216;2022-10-23T05:29:30;101024.19;;;12.27;100.00
1207;BME280;593;53.184;8.216;2022-10-23T05:31:58;101022.84;;;12.24;100.00
1207;BME280;593;53.184;8.216;2022-10-23T05:34:26;101030.72;;;12.26;100.00
1207;BME280;593;53.184;8.216;2022-10-23T05:36:53;101015.50;;;12.25;100.00
1207;BME280;593;53.184;8.216;2022-10-23T05:39:19;101005.97;;;12.22;100.00
1207;BME280;593;53.184;8.216;2022-10-23T05:41:44;101004.28;;;12.26;100.00
1207;BME280;593;53.184;8.216;2022-10-23T05:44:10;100999.38;;;12.23;100.00
1207;BME280;593;53.184;8.216;2022-10-23T05:46:41;100989.31;;;12.23;100.00
1207;BME280;593;53.184;8.216;2022-10-23T05:49:07;100990.94;;;12.25;100.00
1207;BME280;593;53.184;8.216;2022-10-23T05:51:37;100990.34;;;12.28;100.00
1207;BME280;593;53.184;8.216;2022-10-23T05:54:03;100990.66;;;12.26;100.00
1207;BME280;593;53.184;8.216;2022-10-23T05:56:30;100981.94;;;12.24;100.00
1207;BME280;593;53.184;8.216;2022-10-23T05:58:56;100991.22;;;12.23;100.00
1207;BME280;593;53.184;8.216;2022-10-23T06:01:21;100988.47;;;12.23;100.00
1207;BME280;593;53.184;8.216;2022-10-23T06:03:47;100987.13;;;12.20;100.00
1207;BME280;593;53.184;8.216;2022-10-23T06:06:12;100987.44;;;12.19;100.00
1207;BME280;593;53.184;8.216;2022-10-23T06:08:38;100981.47;;;12.17;100.00
1207;BME280;593;53.184;8.216;2022-10-23T06:11:07;100980.34;;;12.18;100.00
1207;BME280;593;53.184;8.216;2022-10-23T06:13:34;100982.53;;;12.16;100.00
1207;BME280;593;53.184;8.216;2022-10-23T06:16:06;100970.06;;;12.05;100.00
1207;BME280;593;53.184;8.216;2022-10-23T06:18:31;100991.03;;;12.14;100.00
1207;BME280;593;53.184;8.216;2022-10-23T06:20:59;100992.41;;;12.12;100.00
1207;BME280;593;53.184;8.216;2022-10-23T06:23:24;100979.94;;;12.01;100.00
1207;BME280;593;53.184;8.216;2022-10-23T06:25:51;100989.13;;;12.10;100.00
1207;BME280;593;53.184;8.216;2022-10-23T06:28:17;100988.03;;;12.11;100.00
1207;BME280;593;53.184;8.216;2022-10-23T06:30:42;100991.31;;;12.08;100.00
1207;BME280;593;53.184;8.216;2022-10-23T06:33:08;100979.06;;;12.05;100.00
1207;BME280;593;53.184;8.216;2022-10-23T06:35:33;100986.69;;;12.08;100.00
1207;BME280;593;53.184;8.216;2022-10-23T06:37:58;100983.16;;;12.08;100.00
1207;BME280;593;53.184;8.216;2022-10-23T06:40:24;100975.53;;;12.05;100.00
1207;BME280;593;53.184;8.216;2022-10-23T06:42:49;100981.28;;;12.03;100.00
1207;BME280;593;53.184;8.216;2022-10-23T06:45:14;100987.84;;;12.02;100.00
1207;BME280;593;53.184;8.216;2022-10-23T06:47:40;100984.31;;;12.02;100.00
1207;BME280;593;53.184;8.216;2022-10-23T06:50:05;100984.31;;;12.02;100.00
1207;BME280;593;53.184;8.216;2022-10-23T06:52:31;100982.66;;;12.01;100.00
1207;BME280;593;53.184;8.216;2022-10-23T06:54:56;100978.06;;;11.96;100.00
1207;BME280;593;53.184;8.216;2022-10-23T06:57:21;100986.50;;;12.00;100.00
1207;BME280;593;53.184;8.216;2022-10-23T06:59:46;100980.50;;;11.98;100.00
1207;BME280;593;53.184;8.216;2022-10-23T07:02:12;100978.06;;;11.96;100.00
1207;BME280;593;53.184;8.216;2022-10-23T07:04:37;100981.06;;;12.00;100.00
1207;BME280;593;53.184;8.216;2022-10-23T07:07:04;100983.78;;;12.00;100.00
1207;BME280;593;53.184;8.216;2022-10-23T07:09:30;100983.19;;;12.03;100.00
1207;BME280;593;53.184;8.216;2022-10-23T07:11:55;100981.81;;;12.05;100.00
1207;BME280;593;53.184;8.216;2022-10-23T07:14:21;100984.50;;;12.10;100.00
1207;BME280;593;53.184;8.216;2022-10-23T07:16:46;100985.59;;;12.09;100.00
1207;BME280;593;53.184;8.216;2022-10-23T07:19:12;100999.47;;;12.13;100.00
1207;BME280;593;53.184;8.216;2022-10-23T07:21:37;100981.19;;;12.13;100.00
1207;BME280;593;53.184;8.216;2022-10-23T07:24:03;100977.13;;;12.11;100.00
1207;BME280;593;53.184;8.216;2022-10-23T07:26:28;100978.72;;;12.17;100.00
1207;BME280;593;53.184;8.216;2022-10-23T07:28:54;100980.88;;;12.20;100.00
1207;BME280;593;53.184;8.216;2022-10-23T07:31:28;100978.97;;;12.20;100.00
1207;BME280;593;53.184;8.216;2022-10-23T07:33:54;100977.56;;;12.23;100.00
1207;BME280;593;53.184;8.216;2022-10-23T07:36:20;100980.03;;;12.25;100.00
1207;BME280;593;53.184;8.216;2022-10-23T07:38:45;100989.56;;;12.27;100.00
1207;BME280;593;53.184;8.216;2022-10-23T07:41:11;100989.25;;;12.29;100.00
1207;BME280;593;53.184;8.216;2022-10-23T07:43:37;100980.50;;;12.32;100.00
1207;BME280;593;53.184;8.216;2022-10-23T07:46:03;100979.13;;;12.34;100.00
1207;BME280;593;53.184;8.216;2022-10-23T07:48:28;100988.34;;;12.38;100.00
1207;BME280;593;53.184;8.216;2022-10-23T07:51:01;100977.44;;;12.38;100.00
1207;BME280;593;53.184;8.216;2022-10-23T07:53:28;100981.75;;;12.44;100.00
1207;BME280;593;53.184;8.216;2022-10-23T07:55:54;100986.91;;;12.46;100.00
1207;BME280;593;53.184;8.216;2022-10-23T07:58:20;100978.72;;;12.46;100.00
1207;BME280;593;53.184;8.216;2022-10-23T08:00:46;100967.56;;;12.47;100.00
1207;BME280;593;53.184;8.216;2022-10-23T08:03:17;100960.47;;;12.46;100.00
1207;BME280;593;53.184;8.216;2022-10-23T08:05:42;100964.22;;;12.50;100.00
1207;BME280;593;53.184;8.216;2022-10-23T08:08:08;100960.94;;;12.53;100.00
1207;BME280;593;53.184;8.216;2022-10-23T08:10:33;100973.19;;;12.56;100.00
1207;BME280;593;53.184;8.216;2022-10-23T08:12:58;100958.72;;;12.55;100.00
1207;BME280;593;53.184;8.216;2022-10-23T08:15:24;100960.88;;;12.58;100.00
1207;BME280;593;53.184;8.216;2022-10-23T08:17:49;100937.44;;;12.57;100.00
1207;BME280;593;53.184;8.216;2022-10-23T08:20:15;100947.47;;;12.62;100.00
1207;BME280;593;53.184;8.216;2022-10-23T08:22:40;100949.88;;;12.68;100.00
1207;BME280;593;53.184;8.216;2022-10-23T08:25:05;100951.19;;;12.71;100.00
1207;BME280;593;53.184;8.216;2022-10-23T08:27:31;100945.16;;;12.74;100.00
1207;BME280;593;53.184;8.216;2022-10-23T08:29:56;100948.41;;;12.76;100.00
1207;BME280;593;53.184;8.216;2022-10-23T08:32:22;100943.78;;;12.76;100.00
1207;BME280;593;53.184;8.216;2022-10-23T08:34:47;100939.34;;;12.80;100.00
1207;BME280;593;53.184;8.216;2022-10-23T08:37:12;100936.34;;;12.82;100.00
1207;BME280;593;53.184;8.216;2022-10-23T08:39:38;100934.94;;;12.84;100.00
1207;BME280;593;53.184;8.216;2022-10-23T08:42:03;100949.63;;;12.88;100.00
1207;BME280;593;53.184;8.216;2022-10-23T08:44:37;100947.66;;;12.94;100.00
1207;BME280;593;53.184;8.216;2022-10-23T08:47:13;100949.06;;;12.92;100.00
1207;BME280;593;53.184;8.216;2022-10-23T08:50:01;100949.00;;;12.97;100.00
1207;BME280;593;53.184;8.216;2022-10-23T08:52:39;100945.41;;;13.01;100.00
1207;BME280;593;53.184;8.216;2022-10-23T08:55:26;100946.44;;;13.05;100.00
1207;BME280;593;53.184;8.216;2022-10-23T08:58:00;100946.41;;;13.10;100.00
1207;BME280;593;53.184;8.216;2022-10-23T09:00:28;100936.88;;;13.08;100.00
1207;BME280;593;53.184;8.216;2022-10-23T09:02:54;100937.94;;;13.12;100.00
1207;BME280;593;53.184;8.216;2022-10-23T09:05:30;100944.34;;;13.21;100.00
1207;BME280;593;53.184;8.216;2022-10-23T09:18:39;100947.13;;;13.39;100.00
1207;BME280;593;53.184;8.216;2022-10-23T09:21:08;100956.88;;;13.45;100.00
1207;BME280;593;53.184;8.216;2022-10-23T09:23:34;100934.72;;;13.47;100.00
1207;BME280;593;53.184;8.216;2022-10-23T09:26:00;100923.50;;;13.48;100.00
1207;BME280;593;53.184;8.216;2022-10-23T09:28:29;100951.50;;;13.59;100.00
1207;BME280;593;53.184;8.216;2022-10-23T09:31:09;100949.78;;;13.63;100.00
1207;BME280;593;53.184;8.216;2022-10-23T09:33:36;100938.25;;;13.66;100.00
1207;BME280;593;53.184;8.216;2022-10-23T09:38:52;100918.97;;;13.76;100.00
1207;BME280;593;53.184;8.216;2022-10-23T09:41:38;100918.91;;;13.81;100.00
1207;BME280;593;53.184;8.216;2022-10-23T09:46:40;100910.84;;;13.90;100.00
1207;BME280;593;53.184;8.216;2022-10-23T09:49:12;100919.84;;;13.90;100.00
1207;BME280;593;53.184;8.216;2022-10-23T09:51:39;100914.28;;;13.95;100.00
1207;BME280;593;53.184;8.216;2022-10-23T09:54:14;100908.72;;;14.00;100.00
1207;BME280;593;53.184;8.216;2022-10-23T09:56:46;100913.00;;;14.06;100.00
1207;BME280;593;53.184;8.216;2022-10-23T10:01:46;100910.41;;;14.15;100.00
1207;BME280;593;53.184;8.216;2022-10-23T10:04:12;100892.59;;;14.18;100.00
1207;BME280;593;53.184;8.216;2022-10-23T10:06:37;100891.38;;;14.24;100.00
1207;BME280;593;53.184;8.216;2022-10-23T10:09:09;100884.47;;;14.26;100.00
1207;BME280;593;53.184;8.216;2022-10-23T10:11:46;100891.81;;;14.31;100.00
1207;BME280;593;53.184;8.216;2022-10-23T10:27:59;100862.16;;;14.51;100.00
1207;BME280;593;53.184;8.216;2022-10-23T10:30:34;100852.00;;;14.52;100.00
1207;BME280;593;53.184;8.216;2022-10-23T10:36:12;100843.69;;;14.57;100.00
1207;BME280;593;53.184;8.216;2022-10-23T10:38:50;100845.03;;;14.59;100.00
1207;BME280;593;53.184;8.216;2022-10-23T10:46:53;100833.88;;;14.69;100.00
1207;BME280;593;53.184;8.216;2022-10-23T10:49:31;100839.53;;;14.73;100.00
1207;BME280;593;53.184;8.216;2022-10-23T10:52:39;100831.03;;;14.74;100.00
1207;BME280;593;53.184;8.216;2022-10-23T10:55:22;100825.53;;;14.74;100.00
1207;BME280;593;53.184;8.216;2022-10-23T10:58:02;100832.22;;;14.82;100.00
1207;BME280;593;53.184;8.216;2022-10-23T11:00:31;100822.09;;;14.83;100.00
1207;BME280;593;53.184;8.216;2022-10-23T11:03:23;100818.72;;;14.86;100.00
1207;BME280;593;53.184;8.216;2022-10-23T11:05:53;100826.31;;;14.89;100.00
1207;BME280;593;53.184;8.216;2022-10-23T11:08:37;100824.59;;;14.93;100.00
1207;BME280;593;53.184;8.216;2022-10-23T11:11:10;100807.34;;;14.92;100.00
1207;BME280;593;53.184;8.216;2022-10-23T11:13:39;100808.06;;;14.98;100.00
1207;BME280;593;53.184;8.216;2022-10-23T11:16:22;100806.63;;;15.00;100.00
1207;BME280;593;53.184;8.216;2022-10-23T11:19:17;100799.91;;;15.06;100.00
1207;BME280;593;53.184;8.216;2022-10-23T11:27:48;100802.13;;;15.18;100.00
1207;BME280;593;53.184;8.216;2022-10-23T11:36:17;100768.47;;;15.26;100.00
1207;BME280;593;53.184;8.216;2022-10-23T11:38:49;100764.19;;;15.33;100.00
1207;BME280;593;53.184;8.216;2022-10-23T11:41:21;100764.06;;;15.38;100.00
1207;BME280;593;53.184;8.216;2022-10-23T11:43:59;100759.88;;;15.41;100.00
1207;BME280;593;53.184;8.216;2022-10-23T11:48:55;100746.91;;;15.47;100.00
1207;BME280;593;53.184;8.216;2022-10-23T11:51:35;100745.66;;;15.53;100.00
1207;BME280;593;53.184;8.216;2022-10-23T11:56:37;100738.09;;;15.58;100.00
1207;BME280;593;53.184;8.216;2022-10-23T11:59:27;100723.47;;;15.63;100.00
1207;BME280;593;53.184;8.216;2022-10-23T12:01:56;100701.34;;;15.59;100.00
1207;BME280;593;53.184;8.216;2022-10-23T12:04:29;100697.84;;;15.67;100.00
1207;BME280;593;53.184;8.216;2022-10-23T12:06:59;100697.84;;;15.67;100.00
1207;BME280;593;53.184;8.216;2022-10-23T12:09:43;100691.41;;;15.72;100.00
1207;BME280;593;53.184;8.216;2022-10-23T12:14:44;100687.06;;;15.79;100.00
1207;BME280;593;53.184;8.216;2022-10-23T12:19:59;100680.00;;;15.87;100.00
1207;BME280;593;53.184;8.216;2022-10-23T12:22:32;100664.03;;;15.89;100.00
1207;BME280;593;53.184;8.216;2022-10-23T12:27:43;100652.75;;;15.99;100.00
1207;BME280;593;53.184;8.216;2022-10-23T12:30:21;100641.63;;;16.04;100.00
1207;BME280;593;53.184;8.216;2022-10-23T12:36:02;100629.22;;;16.07;100.00
1207;BME280;593;53.184;8.216;2022-10-23T12:38:31;100621.81;;;16.07;100.00
1207;BME280;593;53.184;8.216;2022-10-23T12:41:08;100606.31;;;16.11;100.00
1207;BME280;593;53.184;8.216;2022-10-23T12:43:36;100595.31;;;16.11;100.00
1207;BME280;593;53.184;8.216;2022-10-23T12:46:24;100587.75;;;16.17;100.00
1207;BME280;593;53.184;8.216;2022-10-23T12:48:53;100574.84;;;16.17;100.00
1207;BME280;593;53.184;8.216;2022-10-23T12:51:26;100574.69;;;16.22;100.00
1207;BME280;593;53.184;8.216;2022-10-23T12:53:52;100575.97;;;16.25;100.00
1207;BME280;593;53.184;8.216;2022-10-23T12:56:18;100572.59;;;16.28;100.00
1207;BME280;593;53.184;8.216;2022-10-23T12:58:48;100580.97;;;16.31;100.00
1207;BME280;593;53.184;8.216;2022-10-23T13:01:23;100574.38;;;16.32;100.00
1207;BME280;593;53.184;8.216;2022-10-23T13:03:50;100559.53;;;16.33;100.00
1207;BME280;593;53.184;8.216;2022-10-23T13:06:16;100544.16;;;16.32;100.00
1207;BME280;593;53.184;8.216;2022-10-23T13:08:46;100542.38;;;16.36;100.00
1207;BME280;593;53.184;8.216;2022-10-23T13:11:17;100559.31;;;16.38;100.00
1207;BME280;593;53.184;8.216;2022-10-23T13:13:44;100568.06;;;16.40;100.00
1207;BME280;593;53.184;8.216;2022-10-23T13:18:40;100559.16;;;16.43;100.00
1207;BME280;593;53.184;8.216;2022-10-23T13:21:17;100555.47;;;16.48;100.00
1207;BME280;593;53.184;8.216;2022-10-23T13:23:44;100540.13;;;16.47;100.00
1207;BME280;593;53.184;8.216;2022-10-23T13:28:53;100547.72;;;16.50;100.00
1207;BME280;593;53.184;8.216;2022-10-23T13:34:34;100575.03;;;16.55;100.00
1207;BME280;593;53.184;8.216;2022-10-23T13:36:35;100577.44;;;16.56;100.00
1207;BME280;593;53.184;8.216;2022-10-23T13:41:40;100554.50;;;16.61;100.00
1207;BME280;593;53.184;8.216;2022-10-23T13:44:09;100540.47;;;16.62;100.00
1207;BME280;593;53.184;8.216;2022-10-23T13:46:35;100537.38;;;16.64;100.00
1207;BME280;593;53.184;8.216;2022-10-23T13:49:00;100525.56;;;16.63;100.00
1207;BME280;593;53.184;8.216;2022-10-23T13:51:27;100534.31;;;16.65;100.00
1207;BME280;593;53.184;8.216;2022-10-23T13:53:53;100539.13;;;16.68;100.00
1207;BME280;593;53.184;8.216;2022-10-23T13:56:20;100507.00;;;16.69;100.00
1207;BME280;593;53.184;8.216;2022-10-23T13:58:47;100502.97;;;16.66;100.00
1207;BME280;593;53.184;8.216;2022-10-23T14:01:25;100495.19;;;16.68;100.00
1207;BME280;593;53.184;8.216;2022-10-23T14:03:51;100500.03;;;16.72;100.00
1207;BME280;593;53.184;8.216;2022-10-23T14:06:17;100497.63;;;16.70;100.00
1207;BME280;593;53.184;8.216;2022-10-23T14:08:43;100497.47;;;16.75;100.00
1207;BME280;593;53.184;8.216;2022-10-23T14:11:10;100486.47;;;16.75;100.00
1207;BME280;593;53.184;8.216;2022-10-23T14:13:36;100488.06;;;16.76;100.00
1207;BME280;593;53.184;8.216;2022-10-23T14:16:01;100484.66;;;16.79;100.00
1207;BME280;593;53.184;8.216;2022-10-23T14:18:26;100478.06;;;16.80;100.00
1207;BME280;593;53.184;8.216;2022-10-23T14:20:52;100466.25;;;16.80;100.00
1207;BME280;593;53.184;8.216;2022-10-23T14:23:17;100456.38;;;16.79;100.00
1207;BME280;593;53.184;8.216;2022-10-23T14:25:42;100462.38;;;16.81;100.00
1207;BME280;593;53.184;8.216;2022-10-23T14:28:08;100457.66;;;16.81;100.00
1207;BME280;593;53.184;8.216;2022-10-23T14:30:35;100446.38;;;16.83;100.00
1207;BME280;593;53.184;8.216;2022-10-23T14:33:00;100427.44;;;16.81;100.00
1207;BME280;593;53.184;8.216;2022-10-23T14:35:26;100418.91;;;16.83;100.00
1207;BME280;593;53.184;8.216;2022-10-23T14:37:51;100402.06;;;16.84;100.00
1207;BME280;593;53.184;8.216;2022-10-23T14:40:16;100401.75;;;16.86;100.00
1207;BME280;593;53.184;8.216;2022-10-23T14:42:42;100393.81;;;16.84;100.00
1207;BME280;593;53.184;8.216;2022-10-23T14:45:07;100393.00;;;16.84;100.00
1207;BME280;593;53.184;8.216;2022-10-23T14:47:33;100381.09;;;16.80;100.00
1207;BME280;593;53.184;8.216;2022-10-23T14:49:58;100387.88;;;16.82;100.00
1207;BME280;593;53.184;8.216;2022-10-23T14:52:24;100397.38;;;16.85;100.00
1207;BME280;593;53.184;8.216;2022-10-23T14:54:50;100402.88;;;16.85;100.00
1207;BME280;593;53.184;8.216;2022-10-23T14:57:17;100410.19;;;16.81;100.00
1207;BME280;593;53.184;8.216;2022-10-23T14:59:45;100425.66;;;16.85;100.00
1207;BME280;593;53.184;8.216;2022-10-23T15:02:10;100416.63;;;16.85;100.00
1207;BME280;593;53.184;8.216;2022-10-23T15:04:37;100428.06;;;16.87;100.00
1207;BME280;593;53.184;8.216;2022-10-23T15:07:02;100425.97;;;16.84;100.00
1207;BME280;593;53.184;8.216;2022-10-23T15:09:27;100428.06;;;16.87;100.00
1207;BME280;593;53.184;8.216;2022-10-23T15:11:53;100420.19;;;16.85;100.00